Terminal Aerodrome Forecast
Issued by NWS Melbourne, FL

Home | Current Version | Previous Version | Text Only | Print | Product List | Glossary On
Versions: 1 2 3 4 5 6 7 8 9 10 11 12 13 14 15 16
000
FTUS42 KMLB 050536
TAFDAB
TAF
KDAB 050536Z 0506/0606 34003KT P6SM SCT040 SCT200
     FM051400 05005KT P6SM VCSH SCT030 SCT060
     FM051600 05009KT P6SM VCTS SCT040CB SCT070
     FM051900 06009KT P6SM SCT040 BKN120
     FM060300 04003KT P6SM FEW040 OVC250
     FM060400 05002KT P6SM OVC050=

USA.gov is the U.S. government's official web portal to all federal, state and local government web resources and services.